createdAt,value
2023-03-11T00:00:47.454Z,47.70
2023-03-11T00:03:26.059Z,13.20
2023-03-11T00:05:54.387Z,10.30
2023-03-11T00:08:24.244Z,12.10
2023-03-11T00:10:54.775Z,10.50
2023-03-11T00:13:22.898Z,6.70
2023-03-11T00:15:52.539Z,8.20
2023-03-11T00:18:20.153Z,7.60
2023-03-11T00:20:47.777Z,6.40
2023-03-11T00:23:15.963Z,7.10
2023-03-11T00:25:45.624Z,4.90
2023-03-11T00:28:14.900Z,6.10
2023-03-11T00:30:44.866Z,5.70
2023-03-11T00:33:15.095Z,4.90
2023-03-11T00:35:43.907Z,5.70
2023-03-11T00:38:18.551Z,5.60
2023-03-11T00:40:48.016Z,5.20
2023-03-11T00:43:17.061Z,5.40
2023-03-11T00:45:45.203Z,5.70
2023-03-11T00:48:13.936Z,6.20
2023-03-11T00:50:42.632Z,4.80
2023-03-11T00:53:10.853Z,6.60
2023-03-11T00:55:38.462Z,4.90
2023-03-11T00:58:07.053Z,5.90
2023-03-11T01:00:35.491Z,5.10
2023-03-11T01:03:03.642Z,4.40
2023-03-11T01:05:34.003Z,4.50
2023-03-11T01:08:02.546Z,4.50
2023-03-11T01:10:35.429Z,4.30
2023-03-11T01:13:04.055Z,3.50
2023-03-11T01:15:35.331Z,3.80
2023-03-11T01:18:03.251Z,3.90
2023-03-11T01:20:31.658Z,3.30
2023-03-11T01:22:59.245Z,3.60
2023-03-11T01:25:26.975Z,3.30
2023-03-11T01:27:54.567Z,2.90
2023-03-11T01:30:24.377Z,2.70
2023-03-11T01:32:53.513Z,2.60
2023-03-11T01:35:23.875Z,2.30
2023-03-11T01:37:51.795Z,2.20
2023-03-11T01:40:25.998Z,1.50
2023-03-11T01:42:53.592Z,1.50
2023-03-11T01:45:40.959Z,1.70
2023-03-11T01:48:10.108Z,1.50
2023-03-11T01:50:44.955Z,2.30
2023-03-11T01:53:14.719Z,1.60
2023-03-11T01:55:43.769Z,1.60
2023-03-11T01:58:16.941Z,1.50
2023-03-11T02:00:44.832Z,1.50
2023-03-11T02:03:30.259Z,1.40
2023-03-11T02:06:01.217Z,1.50
2023-03-11T02:08:28.927Z,1.60
2023-03-11T02:10:57.367Z,2.50
2023-03-11T02:13:25.060Z,2.10
2023-03-11T02:15:52.765Z,1.80
2023-03-11T02:18:20.966Z,1.80
2023-03-11T02:21:17.269Z,1.90
2023-03-11T02:23:56.195Z,1.70
2023-03-11T02:26:29.461Z,1.60
2023-03-11T02:28:58.284Z,1.80
2023-03-11T02:31:26.298Z,1.60
2023-03-11T02:33:54.909Z,1.80
2023-03-11T02:36:39.329Z,1.70
2023-03-11T02:39:08.696Z,1.70
2023-03-11T02:41:44.719Z,1.60
2023-03-11T02:44:15.956Z,1.20
2023-03-11T02:46:44.253Z,1.70
2023-03-11T02:49:13.017Z,1.40
2023-03-11T02:51:40.597Z,1.50
2023-03-11T02:54:08.300Z,1.20
2023-03-11T02:56:35.874Z,1.50
2023-03-11T02:59:03.566Z,1.30
2023-03-11T03:01:31.186Z,1.20
2023-03-11T03:03:58.943Z,1.30
2023-03-11T03:06:26.601Z,1.20
2023-03-11T03:08:54.918Z,1.70
2023-03-11T03:11:22.590Z,1.10
2023-03-11T03:13:50.159Z,1.30
2023-03-11T03:16:17.948Z,1.70
2023-03-11T03:18:45.757Z,1.20
2023-03-11T03:21:13.333Z,1.60
2023-03-11T03:23:40.957Z,1.50
2023-03-11T03:26:12.280Z,1.30
2023-03-11T03:28:39.902Z,1.50
2023-03-11T03:31:09.299Z,1.70
2023-03-11T03:33:37.246Z,1.70
2023-03-11T03:36:10.518Z,1.60
2023-03-11T03:38:38.390Z,1.60
2023-03-11T03:41:06.377Z,1.40
2023-03-11T03:43:33.929Z,2.10
2023-03-11T03:46:04.251Z,2.30
2023-03-11T03:48:32.576Z,1.60
2023-03-11T03:51:06.299Z,1.70
2023-03-11T03:53:35.575Z,1.90
2023-03-11T03:56:10.910Z,1.50
2023-03-11T03:58:38.525Z,1.60
2023-03-11T04:01:07.009Z,1.60
2023-03-11T04:03:35.364Z,1.60
2023-03-11T04:06:07.307Z,2.30
2023-03-11T04:08:34.859Z,2.00
2023-03-11T04:11:03.145Z,1.80
2023-03-11T04:13:30.725Z,1.50
2023-03-11T04:15:58.479Z,1.80
2023-03-11T04:18:26.305Z,2.40
2023-03-11T04:20:53.946Z,2.00
2023-03-11T04:23:21.591Z,1.80
2023-03-11T04:25:49.164Z,1.70
2023-03-11T04:28:16.762Z,2.40
2023-03-11T04:30:44.369Z,1.90
2023-03-11T04:33:12.097Z,2.60
2023-03-11T04:35:39.710Z,1.60
2023-03-11T04:38:07.435Z,2.20
2023-03-11T04:40:37.183Z,2.20
2023-03-11T04:43:05.124Z,2.50
2023-03-11T04:45:32.796Z,1.90
2023-03-11T04:48:00.352Z,2.80
2023-03-11T04:50:27.908Z,1.80
2023-03-11T04:52:55.528Z,1.90
2023-03-11T04:55:23.303Z,2.10
2023-03-11T04:57:50.898Z,3.00
2023-03-11T05:00:18.963Z,1.80
2023-03-11T05:02:46.669Z,2.00
2023-03-11T05:05:14.275Z,1.90
2023-03-11T05:07:41.989Z,1.80
2023-03-11T05:10:10.180Z,2.20
2023-03-11T05:12:37.793Z,2.30
2023-03-11T05:15:05.922Z,2.70
2023-03-11T05:17:33.551Z,2.20
2023-03-11T05:20:01.109Z,1.70
2023-03-11T05:22:28.675Z,1.50
2023-03-11T05:24:56.225Z,2.10
2023-03-11T05:27:23.837Z,2.10
2023-03-11T05:29:51.628Z,2.40
2023-03-11T05:32:19.248Z,1.60
2023-03-11T05:34:47.011Z,1.90
2023-03-11T05:37:15.740Z,1.60
2023-03-11T05:39:43.293Z,2.60
2023-03-11T05:42:10.858Z,2.30
2023-03-11T05:44:38.507Z,2.20
2023-03-11T05:47:06.214Z,2.30
2023-03-11T05:49:33.927Z,2.50
2023-03-11T05:52:01.559Z,1.70
2023-03-11T05:54:30.048Z,1.20
2023-03-11T05:56:57.585Z,1.20
2023-03-11T05:59:25.158Z,1.60
2023-03-11T06:01:52.707Z,1.70
2023-03-11T06:04:20.596Z,1.80
2023-03-11T06:06:48.273Z,2.30
2023-03-11T06:09:16.187Z,1.90
2023-03-11T06:11:43.805Z,2.30
2023-03-11T06:14:13.310Z,1.70
2023-03-11T06:16:41.834Z,1.90
2023-03-11T06:19:09.637Z,2.80
2023-03-11T06:21:37.226Z,2.50
2023-03-11T06:24:05.184Z,2.80
2023-03-11T06:26:32.771Z,2.30
2023-03-11T06:29:00.316Z,3.10
2023-03-11T06:31:29.348Z,4.60
2023-03-11T06:33:57.093Z,4.30
2023-03-11T06:36:25.041Z,2.40
2023-03-11T06:38:54.218Z,4.10
2023-03-11T06:41:21.880Z,3.30
2023-03-11T06:43:49.866Z,2.40
2023-03-11T06:46:19.980Z,2.70
2023-03-11T06:51:15.934Z,4.40
2023-03-11T06:53:44.067Z,3.60
2023-03-11T06:56:13.591Z,4.10
2023-03-11T06:58:42.341Z,3.90
2023-03-11T07:01:23.822Z,5.40
2023-03-11T07:03:51.982Z,5.80
2023-03-11T07:06:25.748Z,4.00
2023-03-11T07:08:54.382Z,4.90
2023-03-11T07:11:24.936Z,4.00
2023-03-11T07:13:53.992Z,3.30
2023-03-11T07:16:27.321Z,4.10
2023-03-11T07:18:57.753Z,3.60
2023-03-11T07:21:25.745Z,3.60
2023-03-11T07:23:59.285Z,3.10
2023-03-11T07:26:28.382Z,3.00
2023-03-11T07:28:57.394Z,3.00
2023-03-11T07:31:27.607Z,3.80
2023-03-11T07:33:58.032Z,3.00
2023-03-11T07:38:59.067Z,2.80
2023-03-11T07:41:27.029Z,3.80
2023-03-11T07:43:56.471Z,2.30
2023-03-11T07:46:25.982Z,2.60
2023-03-11T07:48:53.939Z,4.30
2023-03-11T07:51:25.374Z,3.20
2023-03-11T07:53:55.555Z,3.70
2023-03-11T07:56:24.846Z,3.10
2023-03-11T07:58:53.415Z,3.20
2023-03-11T08:01:24.861Z,4.40
2023-03-11T08:03:53.864Z,2.60
2023-03-11T08:06:25.456Z,2.80
2023-03-11T08:08:53.665Z,4.60
2023-03-11T08:11:21.318Z,3.10
2023-03-11T08:13:49.986Z,4.00
2023-03-11T08:16:20.035Z,4.10
2023-03-11T08:18:49.084Z,2.60
2023-03-11T08:21:20.102Z,4.30
2023-03-11T08:23:48.145Z,3.50
2023-03-11T08:26:18.431Z,4.30
2023-03-11T08:31:23.403Z,4.60
2023-03-11T08:33:53.681Z,2.30
2023-03-11T08:38:49.235Z,5.20
2023-03-11T08:41:17.264Z,4.30
2023-03-11T08:43:45.622Z,3.40
2023-03-11T08:46:24.705Z,4.30
2023-03-11T08:48:53.354Z,5.30
2023-03-11T08:51:22.337Z,3.60
2023-03-11T08:53:50.708Z,3.00
2023-03-11T08:56:19.055Z,5.80
2023-03-11T08:58:47.334Z,2.80
2023-03-11T09:01:15.063Z,4.80
2023-03-11T09:03:42.887Z,3.90
2023-03-11T09:06:14.404Z,4.40
2023-03-11T09:08:43.785Z,4.30
2023-03-11T09:11:12.162Z,4.30
2023-03-11T09:13:40.455Z,5.50
2023-03-11T09:16:16.794Z,6.10
2023-03-11T09:18:44.625Z,5.10
2023-03-11T09:21:12.947Z,5.10
2023-03-11T09:23:43.605Z,5.20
2023-03-11T09:26:12.777Z,4.30
2023-03-11T09:28:41.553Z,6.00
2023-03-11T09:31:09.454Z,6.50
2023-03-11T09:33:42.569Z,5.60
2023-03-11T09:36:15.484Z,4.90
2023-03-11T09:38:43.789Z,5.60
2023-03-11T09:41:22.263Z,4.00
2023-03-11T09:44:31.471Z,4.50
2023-03-11T09:47:20.842Z,3.90
2023-03-11T09:50:09.287Z,5.10
2023-03-11T09:53:20.298Z,4.60
2023-03-11T09:55:56.255Z,4.60
2023-03-11T09:58:35.879Z,4.60
2023-03-11T10:01:14.267Z,4.20
2023-03-11T10:03:42.955Z,4.20
2023-03-11T10:06:37.980Z,6.00
2023-03-11T10:09:39.401Z,5.30
2023-03-11T10:15:34.527Z,4.70
2023-03-11T10:18:17.154Z,7.50
2023-03-11T10:21:03.533Z,4.60
2023-03-11T10:23:46.591Z,6.70
2023-03-11T10:26:14.251Z,4.00
2023-03-11T10:28:47.145Z,5.60
2023-03-11T10:31:17.900Z,4.20
2023-03-11T10:33:58.904Z,5.10
2023-03-11T10:36:35.498Z,7.10
2023-03-11T10:39:05.129Z,7.90
2023-03-11T10:41:44.102Z,6.60
2023-03-11T10:44:28.660Z,5.10
2023-03-11T10:46:56.373Z,6.40
2023-03-11T10:49:23.973Z,8.60
2023-03-11T10:51:53.981Z,5.00
2023-03-11T10:54:37.740Z,6.50
2023-03-11T10:57:20.335Z,5.40
2023-03-11T10:59:50.979Z,5.40
2023-03-11T11:02:23.318Z,6.20
2023-03-11T11:05:02.985Z,5.60
2023-03-11T11:07:34.099Z,5.90
2023-03-11T11:10:25.236Z,6.20
2023-03-11T11:13:02.350Z,7.00
2023-03-11T11:15:36.642Z,6.40
2023-03-11T11:18:18.052Z,6.90
2023-03-11T11:21:01.596Z,6.60
2023-03-11T11:23:44.967Z,7.10
2023-03-11T11:26:22.835Z,6.30
2023-03-11T11:29:09.505Z,4.30
2023-03-11T11:31:39.465Z,6.40
2023-03-11T11:34:30.521Z,4.80
2023-03-11T11:37:00.883Z,5.70
2023-03-11T11:42:00.623Z,4.40
2023-03-11T11:44:34.833Z,4.40
2023-03-11T11:47:13.519Z,4.10
2023-03-11T11:49:50.792Z,5.60
2023-03-11T11:52:24.088Z,4.60
2023-03-11T11:54:54.119Z,4.10
2023-03-11T11:57:23.604Z,4.30
2023-03-11T11:59:51.302Z,4.10
2023-03-11T12:02:34.371Z,3.40
2023-03-11T12:05:15.113Z,3.50
2023-03-11T12:08:09.235Z,3.70
2023-03-11T12:10:42.787Z,4.50
2023-03-11T12:13:31.960Z,4.60
2023-03-11T12:16:06.524Z,4.90
2023-03-11T12:18:57.201Z,4.80
2023-03-11T12:22:06.250Z,4.40
2023-03-11T12:25:07.417Z,3.10
2023-03-11T12:27:44.728Z,3.10
2023-03-11T12:30:21.246Z,3.50
2023-03-11T12:32:56.686Z,3.50
2023-03-11T12:35:30.872Z,4.70
2023-03-11T12:38:01.509Z,3.90
2023-03-11T12:40:44.477Z,4.60
2023-03-11T12:43:23.899Z,4.20
2023-03-11T12:45:53.608Z,4.60
2023-03-11T12:48:30.053Z,4.00
2023-03-11T12:50:58.959Z,4.70
2023-03-11T12:53:44.568Z,4.60
2023-03-11T12:56:56.530Z,5.40
2023-03-11T13:00:01.959Z,3.90
2023-03-11T13:03:00.284Z,3.50
2023-03-11T13:05:46.196Z,4.30
2023-03-11T13:08:17.564Z,3.60
2023-03-11T13:10:55.789Z,3.80
2023-03-11T13:13:42.424Z,5.30
2023-03-11T13:16:12.833Z,5.00
2023-03-11T13:21:27.384Z,3.90
2023-03-11T13:26:47.211Z,3.30
2023-03-11T13:29:51.317Z,4.60
2023-03-11T13:32:34.149Z,3.40
2023-03-11T13:35:28.363Z,4.50
2023-03-11T13:38:34.139Z,5.50
2023-03-11T13:41:09.925Z,5.60
2023-03-11T13:43:46.791Z,5.60
2023-03-11T13:46:27.758Z,5.00
2023-03-11T13:49:05.146Z,3.60
2023-03-11T13:51:40.738Z,5.20
2023-03-11T13:54:17.139Z,4.00
2023-03-11T13:56:48.995Z,3.40
2023-03-11T13:59:31.636Z,5.10
2023-03-11T14:02:06.397Z,5.50
2023-03-11T14:04:36.721Z,3.70
2023-03-11T14:07:34.847Z,3.90
2023-03-11T14:10:11.307Z,3.70
2023-03-11T14:12:39.440Z,3.60
2023-03-11T14:15:15.958Z,4.80
2023-03-11T14:17:43.816Z,5.20
2023-03-11T14:20:20.975Z,4.30
2023-03-11T14:22:51.229Z,5.40
2023-03-11T14:25:24.441Z,4.60
2023-03-11T14:27:56.477Z,2.80
2023-03-11T14:30:27.935Z,3.90
2023-03-11T14:32:59.998Z,4.60
2023-03-11T14:35:28.429Z,4.00
2023-03-11T14:37:57.871Z,4.20
2023-03-11T14:40:27.216Z,3.50
2023-03-11T14:42:58.184Z,4.80
2023-03-11T14:45:29.864Z,4.30
2023-03-11T14:48:06.421Z,2.80
2023-03-11T14:50:35.155Z,4.20
2023-03-11T14:53:12.997Z,3.50
2023-03-11T14:55:51.127Z,5.10
2023-03-11T14:58:30.887Z,4.40
2023-03-11T15:01:05.240Z,4.90
2023-03-11T15:03:39.951Z,5.00
2023-03-11T15:06:16.579Z,3.80
2023-03-11T15:09:06.103Z,4.90
2023-03-11T15:11:45.652Z,5.00
2023-03-11T15:14:31.352Z,6.30
2023-03-11T15:17:41.164Z,7.30
2023-03-11T15:22:57.581Z,7.30
2023-03-11T15:25:25.418Z,7.50
2023-03-11T15:27:53.171Z,5.30
2023-03-11T15:30:28.277Z,6.10
2023-03-11T15:32:57.369Z,7.90
2023-03-11T15:35:29.960Z,5.60
2023-03-11T15:38:20.893Z,4.70
2023-03-11T15:40:59.511Z,5.70
2023-03-11T15:43:33.175Z,6.20
2023-03-11T15:46:02.910Z,4.60
2023-03-11T15:48:30.584Z,4.70
2023-03-11T15:51:00.388Z,4.50
2023-03-11T15:53:29.817Z,5.50
2023-03-11T15:56:07.453Z,4.50
2023-03-11T15:58:37.514Z,4.20
2023-03-11T16:01:05.261Z,3.10
2023-03-11T16:03:32.937Z,5.70
2023-03-11T16:06:00.568Z,5.00
2023-03-11T16:08:28.129Z,5.10
2023-03-11T16:10:55.864Z,5.00
2023-03-11T16:13:23.515Z,5.20
2023-03-11T16:15:51.190Z,6.40
2023-03-11T16:18:18.767Z,6.80
2023-03-11T16:20:49.765Z,5.70
2023-03-11T16:23:23.840Z,4.40
2023-03-11T16:25:56.941Z,6.20
2023-03-11T16:28:24.751Z,4.40
2023-03-11T16:30:52.402Z,4.10
2023-03-11T16:33:20.091Z,5.30
2023-03-11T16:35:47.890Z,5.50
2023-03-11T16:38:15.492Z,4.90
2023-03-11T16:40:43.223Z,4.90
2023-03-11T16:43:12.784Z,5.50
2023-03-11T16:45:40.396Z,6.40
2023-03-11T16:48:07.999Z,4.50
2023-03-11T16:50:37.457Z,4.30
2023-03-11T16:53:05.458Z,3.90
2023-03-11T16:55:33.186Z,4.30
2023-03-11T16:58:00.964Z,4.70
2023-03-11T17:00:28.538Z,7.40
2023-03-11T17:02:56.204Z,4.80
2023-03-11T17:05:23.928Z,7.00
2023-03-11T17:07:56.451Z,5.20
2023-03-11T17:10:24.175Z,5.30
2023-03-11T17:12:52.136Z,5.50
2023-03-11T17:15:20.235Z,8.50
2023-03-11T17:17:47.867Z,4.60
2023-03-11T17:20:15.467Z,4.10
2023-03-11T17:22:43.165Z,4.00
2023-03-11T17:25:10.834Z,4.20
2023-03-11T17:27:38.429Z,5.00
2023-03-11T17:30:07.531Z,4.40
2023-03-11T17:32:35.189Z,4.90
2023-03-11T17:35:03.170Z,5.50
2023-03-11T17:37:31.181Z,6.60
2023-03-11T17:39:58.864Z,5.20
2023-03-11T17:42:26.488Z,4.30
2023-03-11T17:44:57.689Z,4.90
2023-03-11T17:47:25.364Z,6.60
2023-03-11T17:49:53.313Z,4.20
2023-03-11T17:52:21.018Z,4.30
2023-03-11T17:54:48.859Z,3.50
2023-03-11T17:57:16.471Z,5.30
2023-03-11T17:59:45.181Z,7.50
2023-03-11T18:02:13.586Z,3.90
2023-03-11T18:04:41.403Z,6.40
2023-03-11T18:07:09.062Z,6.20
2023-03-11T18:09:36.803Z,5.20
2023-03-11T18:12:04.930Z,6.10
2023-03-11T18:14:33.024Z,5.40
2023-03-11T18:17:00.643Z,6.20
2023-03-11T18:19:28.240Z,4.20
2023-03-11T18:21:55.909Z,6.20
2023-03-11T18:24:23.508Z,5.60
2023-03-11T18:26:51.091Z,5.10
2023-03-11T18:29:19.110Z,5.60
2023-03-11T18:31:47.109Z,5.30
2023-03-11T18:34:14.951Z,6.10
2023-03-11T18:36:42.680Z,4.40
2023-03-11T18:39:11.108Z,5.70
2023-03-11T18:41:38.732Z,5.10
2023-03-11T18:44:06.909Z,5.30
2023-03-11T18:46:34.682Z,5.00
2023-03-11T18:49:03.591Z,5.20
2023-03-11T18:51:32.200Z,6.00
2023-03-11T18:54:00.855Z,5.60
2023-03-11T18:56:29.259Z,4.90
2023-03-11T18:58:58.766Z,3.60
2023-03-11T19:01:26.917Z,4.80
2023-03-11T19:03:57.743Z,6.40
2023-03-11T19:06:27.879Z,5.40
2023-03-11T19:08:55.729Z,3.30
2023-03-11T19:11:24.979Z,6.10
2023-03-11T19:13:53.178Z,5.60
2023-03-11T19:16:23.954Z,6.10
2023-03-11T19:18:53.006Z,4.10
2023-03-11T19:21:21.444Z,5.10
2023-03-11T19:23:49.129Z,4.70
2023-03-11T19:26:16.709Z,4.80
2023-03-11T19:28:44.333Z,6.00
2023-03-11T19:31:12.228Z,4.10
2023-03-11T19:33:39.894Z,3.90
2023-03-11T19:36:08.354Z,5.00
2023-03-11T19:38:36.006Z,4.60
2023-03-11T19:41:10.483Z,5.00
2023-03-11T19:43:38.199Z,4.60
2023-03-11T19:46:07.340Z,5.60
2023-03-11T19:48:35.322Z,5.00
2023-03-11T19:51:03.416Z,3.50
2023-03-11T19:53:31.266Z,4.10
2023-03-11T19:55:59.290Z,3.00
2023-03-11T19:58:30.558Z,7.60
2023-03-11T20:00:59.407Z,5.40
2023-03-11T20:03:27.081Z,4.10
2023-03-11T20:05:55.855Z,5.40
2023-03-11T20:08:25.667Z,5.70
2023-03-11T20:10:53.901Z,3.90
2023-03-11T20:13:22.394Z,4.80
2023-03-11T20:15:50.423Z,3.00
2023-03-11T20:18:18.420Z,5.10
2023-03-11T20:20:46.526Z,4.90
2023-03-11T20:23:14.779Z,6.50
2023-03-11T20:25:42.438Z,7.40
2023-03-11T20:28:10.566Z,6.10
2023-03-11T20:30:39.261Z,4.30
2023-03-11T20:33:08.000Z,4.00
2023-03-11T20:35:35.726Z,6.20
2023-03-11T20:38:03.399Z,8.70
2023-03-11T20:40:31.014Z,5.70
2023-03-11T20:42:58.614Z,2.50
2023-03-11T20:45:26.413Z,4.70
2023-03-11T20:47:54.136Z,4.50
2023-03-11T20:50:22.840Z,4.20
2023-03-11T20:52:51.004Z,4.60
2023-03-11T20:55:18.791Z,5.10
2023-03-11T20:57:46.701Z,6.30
2023-03-11T21:00:14.855Z,7.80
2023-03-11T21:02:43.380Z,4.60
2023-03-11T21:05:12.598Z,4.90
2023-03-11T21:07:43.801Z,6.20
2023-03-11T21:10:12.437Z,6.90
2023-03-11T21:12:40.250Z,5.00
2023-03-11T21:15:08.814Z,5.20
2023-03-11T21:17:37.589Z,4.70
2023-03-11T21:20:06.126Z,5.20
2023-03-11T21:22:33.957Z,3.80
2023-03-11T21:25:01.678Z,6.20
2023-03-11T21:27:29.368Z,3.90
2023-03-11T21:29:58.935Z,2.50
2023-03-11T21:32:28.258Z,4.50
2023-03-11T21:34:58.385Z,4.40
2023-03-11T21:37:27.231Z,3.80
2023-03-11T21:39:55.123Z,5.00
2023-03-11T21:42:23.592Z,6.30
2023-03-11T21:44:51.544Z,4.00
2023-03-11T21:47:19.621Z,5.10
2023-03-11T21:49:47.432Z,5.20
2023-03-11T21:52:15.070Z,5.60
2023-03-11T21:54:42.804Z,6.20
2023-03-11T21:57:10.504Z,5.30
2023-03-11T21:59:38.258Z,3.90
2023-03-11T22:02:06.405Z,6.30
2023-03-11T22:04:34.103Z,7.40
2023-03-11T22:07:01.915Z,8.00
2023-03-11T22:09:29.604Z,8.30
2023-03-11T22:11:57.259Z,8.30
2023-03-11T22:14:24.981Z,5.30
2023-03-11T22:16:53.047Z,7.20
2023-03-11T22:19:20.859Z,7.80
2023-03-11T22:21:48.664Z,11.80
2023-03-11T22:24:16.280Z,8.00
2023-03-11T22:26:43.865Z,9.50
2023-03-11T22:29:13.546Z,9.20
2023-03-11T22:31:41.461Z,9.30
2023-03-11T22:34:09.143Z,7.20
2023-03-11T22:36:36.722Z,9.40
2023-03-11T22:39:04.798Z,7.60
2023-03-11T22:41:33.184Z,6.70
2023-03-11T22:44:00.851Z,5.60
2023-03-11T22:46:28.871Z,5.40
2023-03-11T22:48:56.540Z,4.40
2023-03-11T22:51:24.164Z,7.20
2023-03-11T22:53:51.761Z,5.10
2023-03-11T22:56:19.441Z,5.20
2023-03-11T22:58:47.035Z,6.90
2023-03-11T23:01:14.576Z,5.80
2023-03-11T23:03:43.518Z,5.20
2023-03-11T23:06:15.230Z,5.00
2023-03-11T23:08:42.939Z,4.20
2023-03-11T23:11:14.506Z,6.40
2023-03-11T23:13:43.485Z,4.60
2023-03-11T23:16:17.530Z,5.90
2023-03-11T23:18:46.249Z,5.20
2023-03-11T23:21:19.570Z,5.30
2023-03-11T23:23:47.545Z,5.10
2023-03-11T23:26:15.701Z,4.80
2023-03-11T23:28:43.772Z,5.50
2023-03-11T23:31:14.133Z,5.20
2023-03-11T23:33:42.636Z,3.70
2023-03-11T23:36:13.925Z,3.20
2023-03-11T23:38:42.042Z,3.90
2023-03-11T23:41:12.802Z,4.20
2023-03-11T23:43:40.863Z,3.70
2023-03-11T23:46:09.694Z,5.50
2023-03-11T23:48:38.279Z,6.40
2023-03-11T23:51:05.923Z,5.10
2023-03-11T23:53:33.891Z,4.50
2023-03-11T23:56:01.733Z,4.50
2023-03-11T23:58:29.348Z,4.80
